createdAt,value
2023-01-08T17:21:31.596Z,7.63
2023-01-08T17:23:58.540Z,7.49
2023-01-08T17:26:25.729Z,7.41
2023-01-08T17:28:52.663Z,7.35
2023-01-08T17:31:20.934Z,7.30
2023-01-08T17:33:50.520Z,7.25
2023-01-08T17:36:20.396Z,7.12
2023-01-08T17:38:49.437Z,7.00
2023-01-08T17:41:56.368Z,6.91
2023-01-08T17:44:26.456Z,6.83
2023-01-08T17:46:53.669Z,6.79
2023-01-08T17:49:23.306Z,6.75
2023-01-08T17:51:50.411Z,6.68
2023-01-08T17:54:17.696Z,6.63
2023-01-08T17:56:45.278Z,6.60
2023-01-08T17:59:17.395Z,6.54
2023-01-08T18:01:49.382Z,6.48
2023-01-08T18:04:17.233Z,6.45
2023-01-08T18:06:44.945Z,6.42
2023-01-08T18:09:13.228Z,6.40
2023-01-08T18:11:41.501Z,6.38
2023-01-08T18:14:12.246Z,6.32
2023-01-08T18:16:39.656Z,6.27
2023-01-08T18:19:06.589Z,6.25
2023-01-08T18:21:33.757Z,6.20
2023-01-08T18:24:00.982Z,6.07
2023-01-08T18:26:30.439Z,5.98
2023-01-08T18:28:57.612Z,5.95
2023-01-08T18:31:24.788Z,5.94
2023-01-08T18:33:52.596Z,5.94
2023-01-08T18:36:20.380Z,5.93
2023-01-08T18:38:48.582Z,5.87
2023-01-08T18:41:36.688Z,5.84
2023-01-08T18:44:06.390Z,5.85
2023-01-08T18:46:33.774Z,5.85
2023-01-08T18:49:00.979Z,5.80
2023-01-08T18:51:28.415Z,5.82
2023-01-08T18:53:55.920Z,5.87
2023-01-08T18:56:33.556Z,5.90
2023-01-08T18:59:01.550Z,5.92
2023-01-08T19:01:29.470Z,5.90
2023-01-08T19:03:57.468Z,5.89
2023-01-08T19:06:25.007Z,5.89
2023-01-08T19:08:52.519Z,5.92
2023-01-08T19:11:19.776Z,5.97
2023-01-08T19:13:46.779Z,6.02
2023-01-08T19:16:14.393Z,6.06
2023-01-08T19:18:41.511Z,6.05
2023-01-08T19:21:10.221Z,6.06
2023-01-08T19:23:37.075Z,6.08
2023-01-08T19:26:08.356Z,6.11
2023-01-08T19:28:35.978Z,6.12
2023-01-08T19:31:25.335Z,6.16
2023-01-08T19:33:52.942Z,6.18
2023-01-08T19:36:23.721Z,6.18
2023-01-08T19:38:50.766Z,6.09
2023-01-08T19:41:57.191Z,5.96
2023-01-08T19:44:24.227Z,5.91
2023-01-08T19:46:51.371Z,5.88
2023-01-08T19:49:18.455Z,5.81
2023-01-08T19:52:05.748Z,5.73
2023-01-08T19:54:32.740Z,5.66
2023-01-08T19:56:59.706Z,5.59
2023-01-08T19:59:26.593Z,5.50
2023-01-08T20:01:53.573Z,5.41
2023-01-08T20:04:20.787Z,5.36
2023-01-08T20:06:47.974Z,5.27
2023-01-08T20:09:15.986Z,5.15
2023-01-08T20:11:42.984Z,5.13
2023-01-08T20:14:09.946Z,5.13
2023-01-08T20:16:37.012Z,5.13
2023-01-08T20:19:04.785Z,5.12
2023-01-08T20:21:33.680Z,5.03
2023-01-08T20:24:05.127Z,4.94
2023-01-08T20:26:32.469Z,4.91
2023-01-08T20:28:59.709Z,4.87
2023-01-08T20:31:30.806Z,4.85
2023-01-08T20:33:59.466Z,4.79
2023-01-08T20:36:30.310Z,4.78
2023-01-08T20:38:59.958Z,4.75
2023-01-08T20:41:27.397Z,4.73
2023-01-08T20:43:56.381Z,4.71
2023-01-08T20:46:28.747Z,4.67
2023-01-08T20:48:57.375Z,4.62
2023-01-08T20:51:24.209Z,4.58
2023-01-08T21:00:18.613Z,4.52
2023-01-08T21:02:45.515Z,4.41
2023-01-08T21:05:12.376Z,4.30
2023-01-08T21:07:39.128Z,4.28
2023-01-08T21:10:06.922Z,4.25
2023-01-08T21:12:35.745Z,4.17
2023-01-08T21:15:03.078Z,4.13
2023-01-08T21:17:29.956Z,4.15
2023-01-08T21:19:57.554Z,4.19
2023-01-08T21:22:24.336Z,4.18
2023-01-08T21:24:51.131Z,4.12
2023-01-08T21:27:18.011Z,4.05
2023-01-08T21:29:44.849Z,3.96
2023-01-08T21:32:11.721Z,3.96
2023-01-08T21:34:38.526Z,3.98
2023-01-08T21:37:07.586Z,3.99
2023-01-08T21:39:34.587Z,3.92
2023-01-08T21:42:20.520Z,3.88
2023-01-08T21:45:06.353Z,3.91
2023-01-08T21:47:33.179Z,3.92
2023-01-08T21:50:00.135Z,3.93
2023-01-08T21:52:46.303Z,3.87
2023-01-08T21:55:17.170Z,3.76
2023-01-08T21:57:45.469Z,3.77
2023-01-08T22:00:14.353Z,3.80
2023-01-08T22:02:41.590Z,3.75
2023-01-08T22:05:09.794Z,3.73
2023-01-08T22:07:37.647Z,3.69
2023-01-08T22:10:06.236Z,3.64
2023-01-08T22:12:33.017Z,3.64
2023-01-08T22:15:02.191Z,3.64
2023-01-08T22:17:31.110Z,3.62
2023-01-08T22:19:58.176Z,3.64
2023-01-08T22:22:25.140Z,3.64
2023-01-08T22:24:52.622Z,3.65
2023-01-08T22:27:20.730Z,3.67
2023-01-08T22:29:48.457Z,3.61
2023-01-08T22:32:15.511Z,3.49
2023-01-08T22:34:42.334Z,3.47
2023-01-08T22:37:09.239Z,3.41
2023-01-08T22:39:36.220Z,3.35
2023-01-08T22:42:03.085Z,3.35
2023-01-08T22:44:29.932Z,3.37
2023-01-08T22:46:59.129Z,3.38
2023-01-08T22:49:26.097Z,3.37
2023-01-08T22:51:55.282Z,3.34
2023-01-08T22:54:22.245Z,3.34
2023-01-08T22:56:49.100Z,3.33
2023-01-08T22:59:16.015Z,3.33
2023-01-08T23:01:42.938Z,3.33
2023-01-08T23:04:10.753Z,3.34
2023-01-08T23:06:38.462Z,3.32
2023-01-08T23:09:05.414Z,3.27
2023-01-08T23:11:32.717Z,3.22
2023-01-08T23:14:01.062Z,3.17
2023-01-08T23:16:28.000Z,3.07
2023-01-08T23:18:56.066Z,3.06
2023-01-08T23:21:26.625Z,3.08
2023-01-08T23:23:53.525Z,3.07
2023-01-08T23:26:23.575Z,3.07
2023-01-08T23:28:52.456Z,3.01
2023-01-08T23:31:24.965Z,2.96
2023-01-08T23:33:52.524Z,2.95
2023-01-08T23:36:21.489Z,2.96
2023-01-08T23:38:54.062Z,2.98
2023-01-08T23:41:25.695Z,2.98
2023-01-08T23:43:52.575Z,2.95
2023-01-08T23:46:19.405Z,2.87
2023-01-08T23:48:46.231Z,2.79
2023-01-08T23:51:13.110Z,2.78
2023-01-08T23:53:39.894Z,2.79
2023-01-08T23:56:07.839Z,2.82
2023-01-08T23:58:36.113Z,2.82
